Погода Пузановона неделю

Тверская область, Россия

22 - 28 мая
  • 22мая
    Сегодня
    +7°
    +23°
    Ясно и безоблачно
    ВремяПогодаТемператураВлажностьДавлениеВетер, м/сВероятность осадков
    00:00Ясно и безоблачно+10°C50 %747 мм2.7 м/с2 %
    03:00Ясно и безоблачно+8°C68 %747 мм2.9 м/с2 %
    06:00Ясно и безоблачно+8°C68 %747 мм2.9 м/с2 %
    09:00Ясно и безоблачно+16°C54 %748 мм3.2 м/с2 %
    12:00Ясно и безоблачно+21°C38 %748 мм3.7 м/с2 %
    15:00Ясно и безоблачно+23°C36 %748 мм3.4 м/с2 %
    18:00Ясно и безоблачно+22°C37 %748 мм3.7 м/с2 %
    21:00Ясно и безоблачно+17°C52 %748 мм3.1 м/с2 %
  • 23мая
    Четверг
    +6°
    +21°
    Ясно и безоблачно
    ВремяПогодаТемператураВлажностьДавлениеВетер, м/сВероятность осадков
    00:00Ясно и безоблачно+11°C57 %749 мм3.1 м/с2 %
    03:00Ясно и безоблачно+9°C61 %750 мм3.0 м/с2 %
    06:00Ясно и безоблачно+9°C64 %751 мм2.9 м/с2 %
    09:00Ясно и безоблачно+16°C52 %752 мм3.1 м/с2 %
    12:00Ясно и безоблачно+19°C38 %752 мм4.4 м/с2 %
    15:00Ясно и безоблачно+21°C36 %752 мм3.8 м/с2 %
    18:00Ясно и безоблачно+21°C37 %752 мм3.9 м/с2 %
    21:00Ясно и безоблачно+16°C52 %752 мм2.6 м/с2 %
  • 24мая
    Пятница
    +8°
    +22°
    Ясно и безоблачно
    ВремяПогодаТемператураВлажностьДавлениеВетер, м/сВероятность осадков
    00:00Ясно и безоблачно+10°C64 %753 мм2.4 м/с2 %
    03:00Ясно и безоблачно+8°C68 %754 мм2.5 м/с2 %
    06:00Ясно и безоблачно+8°C69 %754 мм2.5 м/с2 %
    09:00Ясно и безоблачно+16°C49 %755 мм3.1 м/с2 %
    12:00Ясно и безоблачно+19°C38 %755 мм4.3 м/с2 %
    15:00Ясно и безоблачно+21°C31 %754 мм4.0 м/с2 %
    18:00Ясно и безоблачно+21°C33 %753 мм3.5 м/с2 %
    21:00Ясно и безоблачно+16°C50 %753 мм2.5 м/с2 %
  • 25мая
    Суббота
    +9°
    +24°
    Ясно и безоблачно
    ВремяПогодаТемператураВлажностьДавлениеВетер, м/сВероятность осадков
    00:00Ясно и безоблачно+10°C54 %753 мм3.2 м/с2 %
    03:00Ясно и безоблачно+8°C66 %753 мм2.7 м/с2 %
    06:00Ясно и безоблачно+8°C73 %753 мм2.8 м/с2 %
    09:00Ясно и безоблачно+17°C58 %753 мм2.6 м/с2 %
    12:00Ясно и безоблачно+21°C45 %752 мм2.6 м/с2 %
    15:00Ясно и безоблачно+23°C41 %751 мм2.6 м/с2 %
    18:00Ясно и безоблачно+24°C43 %750 мм2.2 м/с2 %
    21:00Ясно и безоблачно+17°C70 %749 мм2.3 м/с2 %
Мы используем cookies
Соглашаюсь